sensor_id;sensor_type;location;lat;lon;timestamp;P1;durP1;ratioP1;P2;durP2;ratioP2
77520;SDS011;66633;47.628;19.158;2023-02-01T00:01:04;8.07;;;2.20;;
77520;SDS011;66633;47.628;19.158;2023-02-01T00:03:30;6.15;;;2.10;;
77520;SDS011;66633;47.628;19.158;2023-02-01T00:05:56;6.13;;;2.20;;
77520;SDS011;66633;47.628;19.158;2023-02-01T00:08:22;8.10;;;2.60;;
77520;SDS011;66633;47.628;19.158;2023-02-01T00:10:47;5.73;;;2.03;;
77520;SDS011;66633;47.628;19.158;2023-02-01T00:13:12;6.73;;;2.23;;
77520;SDS011;66633;47.628;19.158;2023-02-01T00:15:37;7.53;;;2.10;;
77520;SDS011;66633;47.628;19.158;2023-02-01T00:18:02;6.53;;;2.20;;
77520;SDS011;66633;47.628;19.158;2023-02-01T00:20:28;7.87;;;2.17;;
77520;SDS011;66633;47.628;19.158;2023-02-01T00:22:53;6.07;;;2.00;;
77520;SDS011;66633;47.628;19.158;2023-02-01T00:25:18;6.53;;;2.00;;
77520;SDS011;66633;47.628;19.158;2023-02-01T00:27:47;6.65;;;2.70;;
77520;SDS011;66633;47.628;19.158;2023-02-01T00:30:13;5.53;;;1.70;;
77520;SDS011;66633;47.628;19.158;2023-02-01T00:32:38;7.13;;;2.07;;
77520;SDS011;66633;47.628;19.158;2023-02-01T00:35:03;6.43;;;2.17;;
77520;SDS011;66633;47.628;19.158;2023-02-01T00:37:29;4.85;;;2.08;;
77520;SDS011;66633;47.628;19.158;2023-02-01T00:39:54;5.27;;;2.07;;
77520;SDS011;66633;47.628;19.158;2023-02-01T00:42:20;7.00;;;2.10;;
77520;SDS011;66633;47.628;19.158;2023-02-01T00:44:45;7.28;;;2.88;;
77520;SDS011;66633;47.628;19.158;2023-02-01T00:47:12;7.28;;;2.45;;
77520;SDS011;66633;47.628;19.158;2023-02-01T00:49:37;7.45;;;2.30;;
77520;SDS011;66633;47.628;19.158;2023-02-01T00:52:02;7.27;;;2.40;;
77520;SDS011;66633;47.628;19.158;2023-02-01T00:54:27;7.70;;;2.60;;
77520;SDS011;66633;47.628;19.158;2023-02-01T00:56:53;7.43;;;2.25;;
77520;SDS011;66633;47.628;19.158;2023-02-01T00:59:18;5.65;;;2.13;;
77520;SDS011;66633;47.628;19.158;2023-02-01T01:01:43;6.47;;;2.40;;
77520;SDS011;66633;47.628;19.158;2023-02-01T01:04:08;6.27;;;2.20;;
77520;SDS011;66633;47.628;19.158;2023-02-01T01:06:34;5.93;;;2.22;;
77520;SDS011;66633;47.628;19.158;2023-02-01T01:09:00;8.07;;;2.30;;
77520;SDS011;66633;47.628;19.158;2023-02-01T01:11:27;6.00;;;2.20;;
77520;SDS011;66633;47.628;19.158;2023-02-01T01:13:53;5.50;;;2.08;;
77520;SDS011;66633;47.628;19.158;2023-02-01T01:16:20;8.07;;;2.40;;
77520;SDS011;66633;47.628;19.158;2023-02-01T01:18:46;6.70;;;2.10;;
77520;SDS011;66633;47.628;19.158;2023-02-01T01:21:11;7.22;;;2.38;;
77520;SDS011;66633;47.628;19.158;2023-02-01T01:23:37;5.45;;;1.92;;
77520;SDS011;66633;47.628;19.158;2023-02-01T01:26:07;8.77;;;2.60;;
77520;SDS011;66633;47.628;19.158;2023-02-01T01:28:32;7.70;;;2.50;;
77520;SDS011;66633;47.628;19.158;2023-02-01T01:30:57;7.57;;;2.67;;
77520;SDS011;66633;47.628;19.158;2023-02-01T01:33:22;6.80;;;2.27;;
77520;SDS011;66633;47.628;19.158;2023-02-01T01:35:48;7.45;;;2.53;;
77520;SDS011;66633;47.628;19.158;2023-02-01T01:38:13;5.97;;;2.30;;
77520;SDS011;66633;47.628;19.158;2023-02-01T01:40:38;5.27;;;2.10;;
77520;SDS011;66633;47.628;19.158;2023-02-01T01:43:09;6.82;;;2.13;;
77520;SDS011;66633;47.628;19.158;2023-02-01T01:45:37;6.13;;;2.17;;
77520;SDS011;66633;47.628;19.158;2023-02-01T01:48:14;7.50;;;2.73;;
77520;SDS011;66633;47.628;19.158;2023-02-01T01:50:42;5.05;;;2.22;;
77520;SDS011;66633;47.628;19.158;2023-02-01T01:53:10;7.50;;;2.47;;
77520;SDS011;66633;47.628;19.158;2023-02-01T01:55:37;5.13;;;2.10;;
77520;SDS011;66633;47.628;19.158;2023-02-01T01:58:08;7.32;;;2.20;;
77520;SDS011;66633;47.628;19.158;2023-02-01T02:00:34;5.53;;;2.50;;
77520;SDS011;66633;47.628;19.158;2023-02-01T02:03:00;6.23;;;2.20;;
77520;SDS011;66633;47.628;19.158;2023-02-01T02:05:28;6.75;;;2.40;;
77520;SDS011;66633;47.628;19.158;2023-02-01T02:07:55;5.65;;;2.03;;
77520;SDS011;66633;47.628;19.158;2023-02-01T02:10:22;7.75;;;2.38;;
77520;SDS011;66633;47.628;19.158;2023-02-01T02:13:07;6.22;;;2.17;;
77520;SDS011;66633;47.628;19.158;2023-02-01T02:15:33;9.75;;;2.97;;
77520;SDS011;66633;47.628;19.158;2023-02-01T02:18:05;5.97;;;2.70;;
77520;SDS011;66633;47.628;19.158;2023-02-01T02:41:30;5.53;;;2.22;;
77520;SDS011;66633;47.628;19.158;2023-02-01T02:44:29;4.72;;;2.22;;
77520;SDS011;66633;47.628;19.158;2023-02-01T02:47:20;6.65;;;2.40;;
77520;SDS011;66633;47.628;19.158;2023-02-01T02:49:58;5.05;;;2.00;;
77520;SDS011;66633;47.628;19.158;2023-02-01T02:55:29;4.82;;;2.05;;
77520;SDS011;66633;47.628;19.158;2023-02-01T02:57:55;5.50;;;2.00;;
77520;SDS011;66633;47.628;19.158;2023-02-01T03:00:39;5.93;;;2.50;;
77520;SDS011;66633;47.628;19.158;2023-02-01T03:03:23;4.78;;;2.17;;
77520;SDS011;66633;47.628;19.158;2023-02-01T03:06:15;4.43;;;1.70;;
77520;SDS011;66633;47.628;19.158;2023-02-01T03:08:41;4.38;;;1.85;;
77520;SDS011;66633;47.628;19.158;2023-02-01T03:11:10;4.32;;;1.65;;
77520;SDS011;66633;47.628;19.158;2023-02-01T03:20:58;5.30;;;2.10;;
77520;SDS011;66633;47.628;19.158;2023-02-01T03:23:26;6.03;;;2.40;;
77520;SDS011;66633;47.628;19.158;2023-02-01T03:25:52;4.90;;;1.90;;
77520;SDS011;66633;47.628;19.158;2023-02-01T03:28:18;5.80;;;1.83;;
77520;SDS011;66633;47.628;19.158;2023-02-01T03:30:46;5.47;;;2.08;;
77520;SDS011;66633;47.628;19.158;2023-02-01T03:33:17;6.20;;;2.15;;
77520;SDS011;66633;47.628;19.158;2023-02-01T03:38:22;5.00;;;2.15;;
77520;SDS011;66633;47.628;19.158;2023-02-01T03:40:52;4.90;;;1.70;;
77520;SDS011;66633;47.628;19.158;2023-02-01T03:43:19;5.90;;;1.90;;
77520;SDS011;66633;47.628;19.158;2023-02-01T03:45:46;5.32;;;1.80;;
77520;SDS011;66633;47.628;19.158;2023-02-01T03:48:13;5.75;;;2.05;;
77520;SDS011;66633;47.628;19.158;2023-02-01T03:50:40;5.25;;;2.00;;
77520;SDS011;66633;47.628;19.158;2023-02-01T03:53:09;4.35;;;1.90;;
77520;SDS011;66633;47.628;19.158;2023-02-01T03:55:36;4.47;;;1.63;;
77520;SDS011;66633;47.628;19.158;2023-02-01T03:58:15;3.92;;;1.52;;
77520;SDS011;66633;47.628;19.158;2023-02-01T04:00:43;3.97;;;1.50;;
77520;SDS011;66633;47.628;19.158;2023-02-01T04:03:09;4.68;;;1.70;;
77520;SDS011;66633;47.628;19.158;2023-02-01T04:05:35;5.65;;;1.55;;
77520;SDS011;66633;47.628;19.158;2023-02-01T04:08:00;5.60;;;2.07;;
77520;SDS011;66633;47.628;19.158;2023-02-01T04:10:25;5.43;;;2.20;;
77520;SDS011;66633;47.628;19.158;2023-02-01T04:12:51;4.90;;;1.58;;
77520;SDS011;66633;47.628;19.158;2023-02-01T04:15:16;4.25;;;1.63;;
77520;SDS011;66633;47.628;19.158;2023-02-01T04:17:41;4.57;;;1.70;;
77520;SDS011;66633;47.628;19.158;2023-02-01T04:20:06;4.27;;;1.57;;
77520;SDS011;66633;47.628;19.158;2023-02-01T04:22:32;4.03;;;1.73;;
77520;SDS011;66633;47.628;19.158;2023-02-01T04:24:57;5.75;;;1.90;;
77520;SDS011;66633;47.628;19.158;2023-02-01T04:27:22;5.80;;;1.93;;
77520;SDS011;66633;47.628;19.158;2023-02-01T04:29:48;4.25;;;1.60;;
77520;SDS011;66633;47.628;19.158;2023-02-01T04:32:16;4.72;;;1.80;;
77520;SDS011;66633;47.628;19.158;2023-02-01T04:34:42;5.07;;;1.60;;
77520;SDS011;66633;47.628;19.158;2023-02-01T04:37:07;4.72;;;1.83;;
77520;SDS011;66633;47.628;19.158;2023-02-01T04:39:33;7.18;;;1.88;;
77520;SDS011;66633;47.628;19.158;2023-02-01T04:41:58;3.83;;;1.42;;
77520;SDS011;66633;47.628;19.158;2023-02-01T04:44:23;5.20;;;1.65;;
77520;SDS011;66633;47.628;19.158;2023-02-01T04:46:48;5.50;;;1.80;;
77520;SDS011;66633;47.628;19.158;2023-02-01T04:49:14;4.78;;;1.88;;
77520;SDS011;66633;47.628;19.158;2023-02-01T04:51:40;3.95;;;1.70;;
77520;SDS011;66633;47.628;19.158;2023-02-01T04:54:05;4.47;;;1.60;;
77520;SDS011;66633;47.628;19.158;2023-02-01T04:56:31;4.10;;;1.60;;
77520;SDS011;66633;47.628;19.158;2023-02-01T04:58:56;4.95;;;1.90;;
77520;SDS011;66633;47.628;19.158;2023-02-01T05:01:22;4.57;;;1.80;;
77520;SDS011;66633;47.628;19.158;2023-02-01T05:03:48;4.90;;;1.60;;
77520;SDS011;66633;47.628;19.158;2023-02-01T05:06:14;3.88;;;1.50;;
77520;SDS011;66633;47.628;19.158;2023-02-01T05:08:39;3.92;;;1.60;;
77520;SDS011;66633;47.628;19.158;2023-02-01T05:11:04;5.53;;;1.95;;
77520;SDS011;66633;47.628;19.158;2023-02-01T05:13:30;4.25;;;1.67;;
77520;SDS011;66633;47.628;19.158;2023-02-01T05:16:13;5.05;;;2.00;;
77520;SDS011;66633;47.628;19.158;2023-02-01T05:18:39;4.70;;;1.80;;
77520;SDS011;66633;47.628;19.158;2023-02-01T05:21:04;5.00;;;1.63;;
77520;SDS011;66633;47.628;19.158;2023-02-01T05:23:30;5.07;;;1.60;;
77520;SDS011;66633;47.628;19.158;2023-02-01T05:25:58;5.05;;;1.88;;
77520;SDS011;66633;47.628;19.158;2023-02-01T05:28:24;4.57;;;1.75;;
77520;SDS011;66633;47.628;19.158;2023-02-01T05:30:49;8.50;;;2.42;;
77520;SDS011;66633;47.628;19.158;2023-02-01T05:33:14;7.70;;;2.90;;
77520;SDS011;66633;47.628;19.158;2023-02-01T05:35:40;5.63;;;2.10;;
77520;SDS011;66633;47.628;19.158;2023-02-01T05:38:05;4.75;;;1.83;;
77520;SDS011;66633;47.628;19.158;2023-02-01T05:40:30;5.07;;;1.80;;
77520;SDS011;66633;47.628;19.158;2023-02-01T05:42:55;4.33;;;1.70;;
77520;SDS011;66633;47.628;19.158;2023-02-01T05:45:21;5.23;;;1.73;;
77520;SDS011;66633;47.628;19.158;2023-02-01T05:47:46;5.03;;;1.80;;
77520;SDS011;66633;47.628;19.158;2023-02-01T05:50:11;5.23;;;1.83;;
77520;SDS011;66633;47.628;19.158;2023-02-01T05:52:37;4.32;;;1.65;;
77520;SDS011;66633;47.628;19.158;2023-02-01T05:55:02;3.93;;;1.67;;
77520;SDS011;66633;47.628;19.158;2023-02-01T05:57:27;4.38;;;1.58;;
77520;SDS011;66633;47.628;19.158;2023-02-01T05:59:53;4.68;;;1.70;;
77520;SDS011;66633;47.628;19.158;2023-02-01T06:02:18;4.93;;;1.67;;
77520;SDS011;66633;47.628;19.158;2023-02-01T06:04:44;4.95;;;2.00;;
77520;SDS011;66633;47.628;19.158;2023-02-01T06:07:09;6.83;;;1.90;;
77520;SDS011;66633;47.628;19.158;2023-02-01T06:09:35;6.88;;;2.00;;
77520;SDS011;66633;47.628;19.158;2023-02-01T06:12:01;4.38;;;1.67;;
77520;SDS011;66633;47.628;19.158;2023-02-01T06:14:26;6.07;;;1.90;;
77520;SDS011;66633;47.628;19.158;2023-02-01T06:16:52;3.67;;;1.63;;
77520;SDS011;66633;47.628;19.158;2023-02-01T06:19:17;4.63;;;2.00;;
77520;SDS011;66633;47.628;19.158;2023-02-01T06:21:43;4.17;;;1.70;;
77520;SDS011;66633;47.628;19.158;2023-02-01T06:24:08;6.53;;;2.43;;
77520;SDS011;66633;47.628;19.158;2023-02-01T06:26:33;6.53;;;2.53;;
77520;SDS011;66633;47.628;19.158;2023-02-01T06:28:58;6.27;;;2.20;;
77520;SDS011;66633;47.628;19.158;2023-02-01T06:31:24;4.37;;;1.83;;
77520;SDS011;66633;47.628;19.158;2023-02-01T06:33:51;5.20;;;2.33;;
77520;SDS011;66633;47.628;19.158;2023-02-01T06:36:16;5.93;;;2.25;;
77520;SDS011;66633;47.628;19.158;2023-02-01T06:38:43;6.10;;;2.28;;
77520;SDS011;66633;47.628;19.158;2023-02-01T06:41:09;4.68;;;1.80;;
77520;SDS011;66633;47.628;19.158;2023-02-01T06:43:34;4.38;;;1.90;;
77520;SDS011;66633;47.628;19.158;2023-02-01T06:46:01;7.22;;;2.55;;
77520;SDS011;66633;47.628;19.158;2023-02-01T06:48:26;5.18;;;2.22;;
77520;SDS011;66633;47.628;19.158;2023-02-01T06:50:52;4.55;;;2.05;;
77520;SDS011;66633;47.628;19.158;2023-02-01T06:53:20;5.90;;;2.20;;
77520;SDS011;66633;47.628;19.158;2023-02-01T06:56:02;5.57;;;1.80;;
77520;SDS011;66633;47.628;19.158;2023-02-01T06:58:31;5.10;;;2.17;;
77520;SDS011;66633;47.628;19.158;2023-02-01T07:01:34;5.85;;;2.05;;
77520;SDS011;66633;47.628;19.158;2023-02-01T07:03:59;5.43;;;2.10;;
77520;SDS011;66633;47.628;19.158;2023-02-01T07:06:24;5.63;;;2.15;;
77520;SDS011;66633;47.628;19.158;2023-02-01T07:08:50;4.38;;;1.92;;
77520;SDS011;66633;47.628;19.158;2023-02-01T07:11:16;4.83;;;1.90;;
77520;SDS011;66633;47.628;19.158;2023-02-01T07:13:41;4.93;;;2.00;;
77520;SDS011;66633;47.628;19.158;2023-02-01T07:16:09;4.72;;;1.73;;
77520;SDS011;66633;47.628;19.158;2023-02-01T07:18:35;5.03;;;1.40;;
77520;SDS011;66633;47.628;19.158;2023-02-01T07:21:00;6.78;;;2.30;;
77520;SDS011;66633;47.628;19.158;2023-02-01T07:23:26;4.38;;;1.75;;
77520;SDS011;66633;47.628;19.158;2023-02-01T07:25:58;5.53;;;2.10;;
77520;SDS011;66633;47.628;19.158;2023-02-01T07:28:24;7.47;;;2.15;;
77520;SDS011;66633;47.628;19.158;2023-02-01T07:30:50;5.05;;;2.10;;
77520;SDS011;66633;47.628;19.158;2023-02-01T07:33:21;5.45;;;1.85;;
77520;SDS011;66633;47.628;19.158;2023-02-01T07:35:47;4.00;;;1.60;;
77520;SDS011;66633;47.628;19.158;2023-02-01T07:38:13;4.60;;;1.50;;
77520;SDS011;66633;47.628;19.158;2023-02-01T07:40:39;4.95;;;1.73;;
77520;SDS011;66633;47.628;19.158;2023-02-01T07:43:04;4.85;;;1.60;;
77520;SDS011;66633;47.628;19.158;2023-02-01T07:45:31;5.00;;;1.60;;
77520;SDS011;66633;47.628;19.158;2023-02-01T07:47:56;5.85;;;2.10;;
77520;SDS011;66633;47.628;19.158;2023-02-01T07:50:21;6.30;;;2.43;;
77520;SDS011;66633;47.628;19.158;2023-02-01T07:52:47;5.47;;;2.00;;
77520;SDS011;66633;47.628;19.158;2023-02-01T07:55:12;6.20;;;1.93;;
77520;SDS011;66633;47.628;19.158;2023-02-01T07:57:37;5.50;;;2.05;;
77520;SDS011;66633;47.628;19.158;2023-02-01T08:00:03;6.10;;;2.10;;
77520;SDS011;66633;47.628;19.158;2023-02-01T08:02:47;7.00;;;2.10;;
77520;SDS011;66633;47.628;19.158;2023-02-01T08:05:12;7.22;;;2.08;;
77520;SDS011;66633;47.628;19.158;2023-02-01T08:07:37;5.25;;;1.80;;
77520;SDS011;66633;47.628;19.158;2023-02-01T08:10:02;6.03;;;2.50;;
77520;SDS011;66633;47.628;19.158;2023-02-01T08:12:30;6.07;;;2.35;;
77520;SDS011;66633;47.628;19.158;2023-02-01T08:14:55;6.63;;;2.30;;
77520;SDS011;66633;47.628;19.158;2023-02-01T08:17:21;6.63;;;2.25;;
77520;SDS011;66633;47.628;19.158;2023-02-01T08:19:46;7.03;;;2.50;;
77520;SDS011;66633;47.628;19.158;2023-02-01T08:22:12;6.20;;;2.08;;
77520;SDS011;66633;47.628;19.158;2023-02-01T08:24:37;5.38;;;1.80;;
77520;SDS011;66633;47.628;19.158;2023-02-01T08:27:05;6.72;;;2.10;;
77520;SDS011;66633;47.628;19.158;2023-02-01T08:29:30;6.28;;;2.70;;
77520;SDS011;66633;47.628;19.158;2023-02-01T08:31:56;6.78;;;2.03;;
77520;SDS011;66633;47.628;19.158;2023-02-01T08:34:21;5.57;;;1.77;;
77520;SDS011;66633;47.628;19.158;2023-02-01T08:36:46;5.53;;;2.00;;
77520;SDS011;66633;47.628;19.158;2023-02-01T08:39:12;5.97;;;2.23;;
77520;SDS011;66633;47.628;19.158;2023-02-01T08:41:37;6.23;;;2.13;;
77520;SDS011;66633;47.628;19.158;2023-02-01T08:44:02;6.97;;;2.88;;
77520;SDS011;66633;47.628;19.158;2023-02-01T08:46:28;7.30;;;2.20;;
77520;SDS011;66633;47.628;19.158;2023-02-01T08:48:53;4.95;;;1.83;;
77520;SDS011;66633;47.628;19.158;2023-02-01T08:51:19;5.78;;;1.70;;
77520;SDS011;66633;47.628;19.158;2023-02-01T08:53:45;4.40;;;1.60;;
77520;SDS011;66633;47.628;19.158;2023-02-01T08:56:11;7.43;;;2.17;;
77520;SDS011;66633;47.628;19.158;2023-02-01T08:58:36;4.85;;;1.95;;
77520;SDS011;66633;47.628;19.158;2023-02-01T09:01:05;9.00;;;2.70;;
77520;SDS011;66633;47.628;19.158;2023-02-01T09:03:31;5.43;;;1.70;;
77520;SDS011;66633;47.628;19.158;2023-02-01T09:06:03;5.85;;;1.90;;
77520;SDS011;66633;47.628;19.158;2023-02-01T09:08:29;5.53;;;2.40;;
77520;SDS011;66633;47.628;19.158;2023-02-01T09:10:58;5.05;;;1.75;;
77520;SDS011;66633;47.628;19.158;2023-02-01T09:13:23;3.83;;;1.55;;
77520;SDS011;66633;47.628;19.158;2023-02-01T09:15:50;6.18;;;1.92;;
77520;SDS011;66633;47.628;19.158;2023-02-01T09:18:15;5.07;;;1.52;;
77520;SDS011;66633;47.628;19.158;2023-02-01T09:20:40;5.80;;;1.90;;
77520;SDS011;66633;47.628;19.158;2023-02-01T09:23:06;4.77;;;1.80;;
77520;SDS011;66633;47.628;19.158;2023-02-01T09:25:32;5.50;;;1.55;;
77520;SDS011;66633;47.628;19.158;2023-02-01T09:27:57;6.07;;;2.00;;
77520;SDS011;66633;47.628;19.158;2023-02-01T09:30:23;6.40;;;1.98;;
77520;SDS011;66633;47.628;19.158;2023-02-01T09:32:48;3.97;;;1.73;;
77520;SDS011;66633;47.628;19.158;2023-02-01T09:35:14;5.20;;;1.60;;
77520;SDS011;66633;47.628;19.158;2023-02-01T09:37:45;5.40;;;1.77;;
77520;SDS011;66633;47.628;19.158;2023-02-01T09:40:13;9.38;;;2.10;;
77520;SDS011;66633;47.628;19.158;2023-02-01T09:42:46;4.97;;;1.75;;
77520;SDS011;66633;47.628;19.158;2023-02-01T09:45:21;6.25;;;1.77;;
77520;SDS011;66633;47.628;19.158;2023-02-01T09:47:53;4.55;;;1.90;;
77520;SDS011;66633;47.628;19.158;2023-02-01T09:50:21;4.30;;;1.90;;
77520;SDS011;66633;47.628;19.158;2023-02-01T09:52:58;6.38;;;1.80;;
77520;SDS011;66633;47.628;19.158;2023-02-01T09:58:01;4.15;;;1.65;;
77520;SDS011;66633;47.628;19.158;2023-02-01T10:00:29;4.88;;;1.73;;
77520;SDS011;66633;47.628;19.158;2023-02-01T10:02:55;4.70;;;1.80;;
77520;SDS011;66633;47.628;19.158;2023-02-01T10:05:26;7.28;;;2.10;;
77520;SDS011;66633;47.628;19.158;2023-02-01T10:10:23;5.50;;;1.90;;
77520;SDS011;66633;47.628;19.158;2023-02-01T10:15:28;5.50;;;2.08;;
77520;SDS011;66633;47.628;19.158;2023-02-01T10:28:39;5.88;;;2.40;;
77520;SDS011;66633;47.628;19.158;2023-02-01T10:31:06;6.55;;;2.40;;
77520;SDS011;66633;47.628;19.158;2023-02-01T10:33:34;6.10;;;2.55;;
77520;SDS011;66633;47.628;19.158;2023-02-01T10:36:04;7.60;;;2.58;;
77520;SDS011;66633;47.628;19.158;2023-02-01T10:38:34;5.03;;;2.15;;
77520;SDS011;66633;47.628;19.158;2023-02-01T10:41:03;5.10;;;2.10;;
77520;SDS011;66633;47.628;19.158;2023-02-01T10:44:04;9.38;;;3.67;;
77520;SDS011;66633;47.628;19.158;2023-02-01T10:46:32;6.72;;;2.40;;
77520;SDS011;66633;47.628;19.158;2023-02-01T10:49:00;6.60;;;2.30;;
77520;SDS011;66633;47.628;19.158;2023-02-01T10:51:28;5.03;;;2.00;;
77520;SDS011;66633;47.628;19.158;2023-02-01T10:54:03;4.47;;;1.52;;
77520;SDS011;66633;47.628;19.158;2023-02-01T10:56:29;6.57;;;1.80;;
77520;SDS011;66633;47.628;19.158;2023-02-01T10:59:02;4.00;;;1.60;;
77520;SDS011;66633;47.628;19.158;2023-02-01T11:01:29;3.30;;;1.42;;
77520;SDS011;66633;47.628;19.158;2023-02-01T11:03:56;4.95;;;1.60;;
77520;SDS011;66633;47.628;19.158;2023-02-01T11:08:54;6.50;;;1.90;;
77520;SDS011;66633;47.628;19.158;2023-02-01T11:11:20;6.75;;;2.28;;
77520;SDS011;66633;47.628;19.158;2023-02-01T11:13:54;5.95;;;2.22;;
77520;SDS011;66633;47.628;19.158;2023-02-01T11:16:21;5.72;;;1.90;;
77520;SDS011;66633;47.628;19.158;2023-02-01T11:18:46;7.57;;;1.95;;
77520;SDS011;66633;47.628;19.158;2023-02-01T11:21:17;6.07;;;2.13;;
77520;SDS011;66633;47.628;19.158;2023-02-01T11:23:43;7.23;;;2.40;;
77520;SDS011;66633;47.628;19.158;2023-02-01T11:26:13;7.50;;;2.38;;
77520;SDS011;66633;47.628;19.158;2023-02-01T11:31:06;5.10;;;1.93;;
77520;SDS011;66633;47.628;19.158;2023-02-01T11:33:34;7.88;;;2.60;;
77520;SDS011;66633;47.628;19.158;2023-02-01T11:36:01;6.82;;;2.58;;
77520;SDS011;66633;47.628;19.158;2023-02-01T11:38:32;7.88;;;3.25;;
77520;SDS011;66633;47.628;19.158;2023-02-01T11:41:13;7.15;;;3.50;;
77520;SDS011;66633;47.628;19.158;2023-02-01T11:43:49;7.18;;;3.05;;
77520;SDS011;66633;47.628;19.158;2023-02-01T11:46:18;8.00;;;3.47;;
77520;SDS011;66633;47.628;19.158;2023-02-01T11:48:49;7.20;;;2.90;;
77520;SDS011;66633;47.628;19.158;2023-02-01T11:51:25;7.20;;;3.28;;
77520;SDS011;66633;47.628;19.158;2023-02-01T12:19:49;10.57;;;5.47;;
77520;SDS011;66633;47.628;19.158;2023-02-01T12:22:38;8.85;;;4.18;;
77520;SDS011;66633;47.628;19.158;2023-02-01T12:45:31;9.13;;;4.83;;
77520;SDS011;66633;47.628;19.158;2023-02-01T12:50:44;7.80;;;3.63;;
77520;SDS011;66633;47.628;19.158;2023-02-01T12:55:55;7.80;;;3.70;;
77520;SDS011;66633;47.628;19.158;2023-02-01T12:58:41;8.68;;;3.75;;
77520;SDS011;66633;47.628;19.158;2023-02-01T13:01:11;10.15;;;4.00;;
77520;SDS011;66633;47.628;19.158;2023-02-01T13:03:44;7.97;;;4.10;;
77520;SDS011;66633;47.628;19.158;2023-02-01T13:06:19;10.02;;;3.97;;
77520;SDS011;66633;47.628;19.158;2023-02-01T13:08:47;7.97;;;3.60;;
77520;SDS011;66633;47.628;19.158;2023-02-01T13:11:24;8.88;;;3.70;;
77520;SDS011;66633;47.628;19.158;2023-02-01T13:14:05;8.65;;;3.75;;
77520;SDS011;66633;47.628;19.158;2023-02-01T13:16:37;8.77;;;3.65;;
77520;SDS011;66633;47.628;19.158;2023-02-01T13:19:08;8.02;;;3.60;;
77520;SDS011;66633;47.628;19.158;2023-02-01T13:21:35;8.68;;;3.85;;
77520;SDS011;66633;47.628;19.158;2023-02-01T13:24:02;7.35;;;3.22;;
77520;SDS011;66633;47.628;19.158;2023-02-01T13:26:28;10.23;;;4.28;;
77520;SDS011;66633;47.628;19.158;2023-02-01T13:29:01;8.15;;;3.63;;
77520;SDS011;66633;47.628;19.158;2023-02-01T13:34:31;5.85;;;2.80;;
77520;SDS011;66633;47.628;19.158;2023-02-01T13:37:05;8.38;;;3.70;;
77520;SDS011;66633;47.628;19.158;2023-02-01T13:42:13;9.38;;;4.82;;
77520;SDS011;66633;47.628;19.158;2023-02-01T13:44:50;12.05;;;5.60;;
77520;SDS011;66633;47.628;19.158;2023-02-01T13:47:22;8.32;;;3.97;;
77520;SDS011;66633;47.628;19.158;2023-02-01T13:49:48;13.82;;;5.32;;
77520;SDS011;66633;47.628;19.158;2023-02-01T13:52:22;10.93;;;4.95;;
77520;SDS011;66633;47.628;19.158;2023-02-01T13:54:48;9.00;;;3.10;;
77520;SDS011;66633;47.628;19.158;2023-02-01T14:00:24;8.30;;;3.67;;
77520;SDS011;66633;47.628;19.158;2023-02-01T14:03:01;6.30;;;3.00;;
77520;SDS011;66633;47.628;19.158;2023-02-01T14:13:39;3.97;;;1.30;;
77520;SDS011;66633;47.628;19.158;2023-02-01T14:23:43;9.25;;;3.03;;
77520;SDS011;66633;47.628;19.158;2023-02-01T14:26:10;12.90;;;4.75;;
77520;SDS011;66633;47.628;19.158;2023-02-01T14:28:38;10.32;;;4.20;;
77520;SDS011;66633;47.628;19.158;2023-02-01T14:31:14;9.40;;;3.45;;
77520;SDS011;66633;47.628;19.158;2023-02-01T14:33:40;15.13;;;5.03;;
77520;SDS011;66633;47.628;19.158;2023-02-01T14:36:10;24.85;;;10.60;;
77520;SDS011;66633;47.628;19.158;2023-02-01T14:38:37;6.63;;;2.25;;
77520;SDS011;66633;47.628;19.158;2023-02-01T14:43:51;4.57;;;1.02;;
77520;SDS011;66633;47.628;19.158;2023-02-01T14:46:17;3.00;;;1.20;;
77520;SDS011;66633;47.628;19.158;2023-02-01T14:48:43;3.78;;;1.25;;
77520;SDS011;66633;47.628;19.158;2023-02-01T14:51:10;20.92;;;8.13;;
77520;SDS011;66633;47.628;19.158;2023-02-01T14:53:36;55.90;;;24.92;;
77520;SDS011;66633;47.628;19.158;2023-02-01T14:58:38;42.55;;;19.48;;
77520;SDS011;66633;47.628;19.158;2023-02-01T15:01:13;25.30;;;10.77;;
77520;SDS011;66633;47.628;19.158;2023-02-01T15:06:37;37.78;;;16.15;;
77520;SDS011;66633;47.628;19.158;2023-02-01T15:09:07;17.08;;;8.77;;
77520;SDS011;66633;47.628;19.158;2023-02-01T15:11:52;24.15;;;9.98;;
77520;SDS011;66633;47.628;19.158;2023-02-01T15:14:23;18.40;;;8.80;;
77520;SDS011;66633;47.628;19.158;2023-02-01T15:16:48;24.23;;;9.98;;
77520;SDS011;66633;47.628;19.158;2023-02-01T15:19:25;36.00;;;14.10;;
77520;SDS011;66633;47.628;19.158;2023-02-01T15:21:52;17.02;;;6.28;;
77520;SDS011;66633;47.628;19.158;2023-02-01T15:24:21;32.22;;;10.88;;
77520;SDS011;66633;47.628;19.158;2023-02-01T15:26:47;37.88;;;15.55;;
77520;SDS011;66633;47.628;19.158;2023-02-01T15:29:13;51.45;;;17.13;;
77520;SDS011;66633;47.628;19.158;2023-02-01T15:31:43;35.95;;;14.88;;
77520;SDS011;66633;47.628;19.158;2023-02-01T15:34:09;25.90;;;10.30;;
77520;SDS011;66633;47.628;19.158;2023-02-01T15:36:34;18.40;;;6.80;;
77520;SDS011;66633;47.628;19.158;2023-02-01T15:41:36;28.35;;;14.40;;
77520;SDS011;66633;47.628;19.158;2023-02-01T15:44:10;31.83;;;14.23;;
77520;SDS011;66633;47.628;19.158;2023-02-01T15:46:40;17.50;;;7.75;;
77520;SDS011;66633;47.628;19.158;2023-02-01T15:49:40;11.85;;;5.20;;
77520;SDS011;66633;47.628;19.158;2023-02-01T15:51:59;19.80;;;9.73;;
77520;SDS011;66633;47.628;19.158;2023-02-01T15:54:28;15.35;;;6.78;;
77520;SDS011;66633;47.628;19.158;2023-02-01T15:56:55;24.67;;;9.93;;
77520;SDS011;66633;47.628;19.158;2023-02-01T15:59:23;21.73;;;9.10;;
77520;SDS011;66633;47.628;19.158;2023-02-01T16:01:49;20.67;;;8.60;;
77520;SDS011;66633;47.628;19.158;2023-02-01T16:04:27;21.42;;;10.18;;
77520;SDS011;66633;47.628;19.158;2023-02-01T16:06:56;10.82;;;4.35;;
77520;SDS011;66633;47.628;19.158;2023-02-01T16:09:22;8.13;;;3.15;;
77520;SDS011;66633;47.628;19.158;2023-02-01T16:11:52;6.20;;;2.10;;
77520;SDS011;66633;47.628;19.158;2023-02-01T16:16:44;7.22;;;3.00;;
77520;SDS011;66633;47.628;19.158;2023-02-01T16:19:09;8.15;;;2.60;;
77520;SDS011;66633;47.628;19.158;2023-02-01T16:21:34;8.40;;;2.70;;
77520;SDS011;66633;47.628;19.158;2023-02-01T16:24:00;15.05;;;5.72;;
77520;SDS011;66633;47.628;19.158;2023-02-01T16:26:28;6.63;;;2.33;;
77520;SDS011;66633;47.628;19.158;2023-02-01T16:28:54;6.32;;;2.50;;
77520;SDS011;66633;47.628;19.158;2023-02-01T16:31:20;5.97;;;2.40;;
77520;SDS011;66633;47.628;19.158;2023-02-01T16:33:48;5.70;;;2.30;;
77520;SDS011;66633;47.628;19.158;2023-02-01T16:36:14;10.07;;;3.95;;
77520;SDS011;66633;47.628;19.158;2023-02-01T16:38:39;12.48;;;5.25;;
77520;SDS011;66633;47.628;19.158;2023-02-01T16:41:04;7.20;;;2.65;;
77520;SDS011;66633;47.628;19.158;2023-02-01T16:43:30;7.53;;;2.90;;
77520;SDS011;66633;47.628;19.158;2023-02-01T16:45:58;6.47;;;2.63;;
77520;SDS011;66633;47.628;19.158;2023-02-01T16:48:25;8.25;;;2.97;;
77520;SDS011;66633;47.628;19.158;2023-02-01T16:50:55;7.18;;;2.30;;
77520;SDS011;66633;47.628;19.158;2023-02-01T16:53:21;9.43;;;3.72;;
77520;SDS011;66633;47.628;19.158;2023-02-01T16:55:47;6.90;;;2.22;;
77520;SDS011;66633;47.628;19.158;2023-02-01T16:58:14;7.57;;;2.25;;
77520;SDS011;66633;47.628;19.158;2023-02-01T17:00:40;4.75;;;2.00;;
77520;SDS011;66633;47.628;19.158;2023-02-01T17:03:06;5.82;;;1.95;;
77520;SDS011;66633;47.628;19.158;2023-02-01T17:05:32;7.80;;;2.20;;